createdAt,value
2017-06-24T00:00:45.638Z,20.24
2017-06-24T00:01:47.505Z,20.20
2017-06-24T00:02:49.394Z,20.18
2017-06-24T00:03:51.256Z,20.11
2017-06-24T00:04:53.055Z,20.10
2017-06-24T00:05:54.857Z,20.10
2017-06-24T00:06:56.721Z,20.08
2017-06-24T00:07:58.609Z,20.03
2017-06-24T00:09:00.493Z,20.01
2017-06-24T00:10:14.627Z,20.03
2017-06-24T00:11:16.510Z,19.99
2017-06-24T00:12:18.373Z,19.96
2017-06-24T00:13:20.232Z,19.95
2017-06-24T00:14:22.039Z,19.98
2017-06-24T00:15:23.856Z,19.96
2017-06-24T00:16:25.725Z,19.84
2017-06-24T00:17:27.611Z,19.87
2017-06-24T00:18:29.499Z,19.92
2017-06-24T00:19:43.653Z,19.92
2017-06-24T00:20:45.537Z,19.86
2017-06-24T00:21:47.420Z,19.86
2017-06-24T00:22:49.286Z,19.87
2017-06-24T00:23:51.084Z,19.88
2017-06-24T00:24:52.883Z,19.80
2017-06-24T00:25:54.745Z,19.77
2017-06-24T00:26:56.612Z,19.77
2017-06-24T00:27:58.474Z,19.71
2017-06-24T00:29:12.610Z,19.74
2017-06-24T00:30:14.471Z,19.71
2017-06-24T00:31:16.332Z,19.73
2017-06-24T00:32:18.219Z,19.68
2017-06-24T00:33:20.044Z,19.65
2017-06-24T00:34:21.844Z,19.62
2017-06-24T00:35:23.706Z,19.59
2017-06-24T00:36:25.576Z,19.63
2017-06-24T00:37:27.441Z,19.54
2017-06-24T00:38:41.599Z,19.55
2017-06-24T00:39:43.479Z,19.54
2017-06-24T00:40:45.345Z,19.55
2017-06-24T00:41:47.231Z,19.51
2017-06-24T00:42:49.058Z,19.54
2017-06-24T00:43:50.880Z,19.56
2017-06-24T00:44:52.763Z,19.54
2017-06-24T00:45:54.626Z,19.55
2017-06-24T00:46:56.492Z,19.44
2017-06-24T00:48:10.625Z,19.39
2017-06-24T00:49:12.508Z,19.43
2017-06-24T00:50:14.397Z,19.50
2017-06-24T00:51:16.279Z,19.41
2017-06-24T00:52:18.097Z,19.41
2017-06-24T00:53:19.898Z,19.50
2017-06-24T00:54:21.769Z,19.36
2017-06-24T00:55:23.652Z,19.47
2017-06-24T00:56:25.517Z,19.41
2017-06-24T00:57:39.674Z,19.51
2017-06-24T00:58:41.555Z,19.54
2017-06-24T00:59:43.443Z,19.50
2017-06-24T01:00:45.308Z,19.47
2017-06-24T01:01:47.112Z,19.40
2017-06-24T01:02:48.934Z,19.36
2017-06-24T01:03:50.800Z,19.43
2017-06-24T01:04:52.689Z,19.46
2017-06-24T01:05:54.552Z,19.43
2017-06-24T01:07:08.683Z,19.44
2017-06-24T01:08:10.548Z,19.36
2017-06-24T01:09:12.415Z,19.43
2017-06-24T01:10:14.274Z,19.37
2017-06-24T01:11:16.081Z,19.37
2017-06-24T01:12:17.879Z,19.32
2017-06-24T01:13:19.764Z,19.31
2017-06-24T01:14:21.625Z,19.40
2017-06-24T01:15:23.489Z,19.40
2017-06-24T01:16:37.624Z,19.36
2017-06-24T01:17:39.502Z,19.40
2017-06-24T01:18:41.373Z,19.46
2017-06-24T01:19:43.262Z,19.44
2017-06-24T01:20:45.090Z,19.47
2017-06-24T01:21:46.910Z,19.41
2017-06-24T01:22:48.794Z,19.47
2017-06-24T01:23:50.677Z,19.40
2017-06-24T01:24:52.544Z,19.39
2017-06-24T01:26:06.701Z,19.47
2017-06-24T01:27:08.586Z,19.37
2017-06-24T01:28:10.471Z,19.51
2017-06-24T01:29:12.356Z,19.39
2017-06-24T01:30:14.174Z,19.47
2017-06-24T01:31:15.998Z,19.41
2017-06-24T01:32:17.875Z,19.36
2017-06-24T01:33:19.740Z,19.47
2017-06-24T01:34:21.602Z,19.50
2017-06-24T01:35:35.733Z,19.54
2017-06-24T01:36:37.601Z,19.54
2017-06-24T01:37:39.469Z,19.59
2017-06-24T01:38:41.354Z,19.61
2017-06-24T01:39:43.169Z,19.61
2017-06-24T01:40:44.972Z,19.59
2017-06-24T01:41:46.857Z,19.56
2017-06-24T01:42:48.738Z,19.61
2017-06-24T01:43:50.596Z,19.59
2017-06-24T01:45:04.730Z,19.61
2017-06-24T01:46:06.613Z,19.59
2017-06-24T01:47:08.499Z,19.63
2017-06-24T01:48:10.380Z,19.65
2017-06-24T01:49:12.176Z,19.63
2017-06-24T01:50:13.972Z,19.61
2017-06-24T01:51:15.842Z,19.54
2017-06-24T01:52:17.726Z,19.43
2017-06-24T01:53:19.615Z,19.36
2017-06-24T01:54:33.767Z,19.59
2017-06-24T01:55:35.650Z,19.54
2017-06-24T01:56:37.536Z,19.58
2017-06-24T01:57:39.415Z,19.61
2017-06-24T01:58:41.215Z,19.66
2017-06-24T01:59:43.035Z,19.69
2017-06-24T02:00:44.900Z,19.76
2017-06-24T02:01:46.788Z,19.74
2017-06-24T02:02:48.673Z,19.76
2017-06-24T02:04:02.825Z,19.81
2017-06-24T02:05:04.708Z,19.77
2017-06-24T02:06:06.568Z,19.87
2017-06-24T02:07:08.450Z,19.84
2017-06-24T02:08:10.248Z,19.91
2017-06-24T02:09:12.048Z,19.87
2017-06-24T02:10:13.908Z,19.91
2017-06-24T02:11:15.772Z,19.88
2017-06-24T02:12:17.638Z,19.96
2017-06-24T02:13:31.791Z,20.05
2017-06-24T02:14:33.654Z,20.02
2017-06-24T02:15:35.516Z,20.01
2017-06-24T02:16:37.383Z,19.96
2017-06-24T02:17:39.204Z,19.96
2017-06-24T02:18:41.019Z,19.88
2017-06-24T02:19:42.897Z,19.99
2017-06-24T02:20:44.748Z,19.92
2017-06-24T02:21:46.616Z,19.96
2017-06-24T02:23:00.776Z,19.99
2017-06-24T02:24:02.655Z,19.92
2017-06-24T02:25:04.519Z,19.95
2017-06-24T02:26:06.388Z,19.98
2017-06-24T02:27:08.208Z,19.95
2017-06-24T02:28:10.028Z,19.87
2017-06-24T02:29:11.894Z,19.92
2017-06-24T02:30:13.779Z,19.84
2017-06-24T02:31:15.663Z,19.80
2017-06-24T02:32:29.802Z,19.88
2017-06-24T02:33:31.667Z,19.78
2017-06-24T02:34:33.551Z,19.81
2017-06-24T02:35:35.438Z,19.77
2017-06-24T02:36:37.257Z,19.80
2017-06-24T02:37:39.062Z,19.83
2017-06-24T02:38:40.950Z,19.69
2017-06-24T02:39:42.818Z,19.84
2017-06-24T02:40:44.666Z,19.74
2017-06-24T02:41:58.825Z,19.74
2017-06-24T02:43:00.712Z,19.73
2017-06-24T02:44:02.601Z,19.68
2017-06-24T02:45:04.491Z,19.68
2017-06-24T02:46:06.310Z,19.58
2017-06-24T02:47:08.115Z,19.59
2017-06-24T02:48:09.985Z,19.59
2017-06-24T02:49:11.829Z,19.62
2017-06-24T02:50:13.689Z,19.66
2017-06-24T02:51:27.820Z,19.62
2017-06-24T02:52:29.690Z,19.63
2017-06-24T02:53:31.572Z,19.71
2017-06-24T02:54:33.437Z,19.73
2017-06-24T02:55:35.235Z,19.80
2017-06-24T02:56:37.043Z,19.83
2017-06-24T02:57:38.928Z,19.74
2017-06-24T02:58:40.797Z,19.78
2017-06-24T02:59:42.685Z,19.73
2017-06-24T03:00:56.840Z,19.69
2017-06-24T03:01:58.726Z,19.73
2017-06-24T03:03:00.612Z,19.73
2017-06-24T03:04:02.477Z,19.78
2017-06-24T03:05:04.281Z,19.78
2017-06-24T03:06:06.085Z,19.76
2017-06-24T03:07:07.952Z,19.73
2017-06-24T03:08:09.823Z,19.69
2017-06-24T03:09:11.714Z,19.73
2017-06-24T03:10:25.869Z,19.66
2017-06-24T03:11:27.734Z,19.74
2017-06-24T03:12:29.625Z,19.76
2017-06-24T03:13:31.511Z,19.74
2017-06-24T03:14:33.314Z,19.76
2017-06-24T03:15:35.133Z,19.84
2017-06-24T03:16:37.006Z,19.81
2017-06-24T03:17:38.874Z,20.03
2017-06-24T03:18:40.767Z,19.94
2017-06-24T03:19:54.925Z,20.10
2017-06-24T03:20:56.812Z,20.13
2017-06-24T03:21:58.677Z,20.13
2017-06-24T03:23:00.545Z,20.20
2017-06-24T03:24:02.351Z,20.17
2017-06-24T03:25:04.174Z,20.26
2017-06-24T03:26:06.065Z,20.32
2017-06-24T03:27:07.948Z,20.29
2017-06-24T03:28:09.818Z,20.28
2017-06-24T03:29:23.949Z,20.43
2017-06-24T03:30:25.823Z,20.38
2017-06-24T03:31:27.705Z,20.39
2017-06-24T03:32:29.576Z,20.47
2017-06-24T03:33:31.402Z,20.57
2017-06-24T03:34:33.207Z,20.52
2017-06-24T03:35:35.072Z,20.58
2017-06-24T03:36:36.936Z,20.54
2017-06-24T03:37:38.809Z,20.57
2017-06-24T03:38:52.963Z,20.54
2017-06-24T03:39:54.833Z,20.59
2017-06-24T03:40:56.696Z,20.57
2017-06-24T03:41:58.566Z,20.61
2017-06-24T03:43:00.372Z,20.67
2017-06-24T03:44:02.199Z,20.64
2017-06-24T03:45:04.092Z,20.58
2017-06-24T03:46:05.979Z,20.51
2017-06-24T03:47:07.850Z,20.69
2017-06-24T03:48:22.014Z,20.59
2017-06-24T03:49:23.901Z,20.73
2017-06-24T03:50:25.768Z,20.70
2017-06-24T03:51:27.654Z,20.82
2017-06-24T03:52:29.461Z,20.98
2017-06-24T03:53:31.287Z,21.09
2017-06-24T03:54:33.174Z,21.25
2017-06-24T03:55:35.042Z,21.44
2017-06-24T03:56:36.932Z,21.52
2017-06-24T03:57:51.090Z,21.61
2017-06-24T03:58:52.958Z,21.72
2017-06-24T03:59:54.847Z,21.75
2017-06-24T04:00:56.737Z,21.96
2017-06-24T04:01:58.560Z,21.99
2017-06-24T04:03:00.361Z,22.20
2017-06-24T04:04:02.237Z,22.33
2017-06-24T04:05:04.123Z,22.54
2017-06-24T04:06:05.994Z,22.68
2017-06-24T04:07:20.131Z,22.86
2017-06-24T04:08:22.005Z,22.77
2017-06-24T04:09:23.894Z,22.68
2017-06-24T04:10:25.789Z,22.55
2017-06-24T04:11:27.614Z,22.49
2017-06-24T04:12:29.422Z,22.31
2017-06-24T04:13:31.312Z,22.27
2017-06-24T04:14:33.187Z,22.18
2017-06-24T04:15:35.076Z,22.03
2017-06-24T04:16:49.235Z,21.99
2017-06-24T04:17:51.108Z,21.96
2017-06-24T04:18:52.972Z,21.91
2017-06-24T04:19:54.839Z,21.86
2017-06-24T04:20:56.644Z,21.94
2017-06-24T04:21:58.455Z,22.06
2017-06-24T04:23:00.349Z,22.15
2017-06-24T04:24:02.238Z,22.35
2017-06-24T04:25:04.109Z,22.54
2017-06-24T04:26:18.249Z,22.75
2017-06-24T04:27:20.115Z,23.04
2017-06-24T04:28:21.987Z,23.47
2017-06-24T04:29:23.857Z,23.73
2017-06-24T04:30:25.659Z,24.18
2017-06-24T04:31:27.465Z,24.39
2017-06-24T04:32:29.274Z,24.55
2017-06-24T04:33:31.083Z,24.90
2017-06-24T04:34:32.913Z,25.03
2017-06-24T04:35:47.075Z,25.39
2017-06-24T04:36:48.968Z,25.72
2017-06-24T04:37:50.861Z,25.85
2017-06-24T04:38:52.747Z,26.02
2017-06-24T04:39:54.565Z,26.26
2017-06-24T04:40:56.386Z,26.51
2017-06-24T04:41:58.263Z,26.60
2017-06-24T04:43:00.154Z,26.72
2017-06-24T04:44:02.050Z,26.85
2017-06-24T04:45:16.267Z,26.88
2017-06-24T04:46:18.163Z,27.00
2017-06-24T04:47:20.054Z,27.25
2017-06-24T04:48:21.926Z,27.22
2017-06-24T04:49:23.734Z,27.32
2017-06-24T04:50:25.537Z,27.22
2017-06-24T04:51:27.415Z,27.17
2017-06-24T04:52:29.308Z,27.21
2017-06-24T04:53:31.209Z,27.29
2017-06-24T04:54:45.366Z,27.31
2017-06-24T04:55:47.241Z,27.09
2017-06-24T04:56:49.136Z,27.17
2017-06-24T04:57:51.006Z,27.27
2017-06-24T04:58:52.837Z,27.43
2017-06-24T04:59:54.667Z,27.69
2017-06-24T05:00:56.558Z,27.85
2017-06-24T05:01:58.434Z,28.18
2017-06-24T05:03:00.326Z,28.40
2017-06-24T05:04:14.479Z,28.68
2017-06-24T05:05:16.370Z,28.83
2017-06-24T05:06:18.244Z,28.90
2017-06-24T05:07:20.140Z,29.02
2017-06-24T05:08:21.946Z,29.16
2017-06-24T05:09:23.755Z,29.46
2017-06-24T05:10:25.629Z,29.71
2017-06-24T05:11:27.521Z,30.05
2017-06-24T05:12:29.421Z,30.23
2017-06-24T05:13:43.594Z,30.54
2017-06-24T05:14:45.487Z,30.79
2017-06-24T05:15:47.377Z,30.94
2017-06-24T05:16:49.248Z,31.04
2017-06-24T05:17:51.059Z,31.14
2017-06-24T05:18:52.889Z,31.02
2017-06-24T05:19:54.765Z,30.82
2017-06-24T05:20:56.634Z,30.72
2017-06-24T05:21:58.514Z,30.46
2017-06-24T05:23:12.683Z,30.20
2017-06-24T05:24:14.552Z,30.00
2017-06-24T05:25:16.449Z,29.85
2017-06-24T05:26:18.350Z,29.74
2017-06-24T05:27:20.183Z,29.79
2017-06-24T05:28:22.019Z,29.71
2017-06-24T05:29:23.891Z,29.63
2017-06-24T05:30:25.786Z,29.67
2017-06-24T05:31:27.658Z,29.65
2017-06-24T05:32:41.820Z,29.61
2017-06-24T05:33:43.670Z,29.55
2017-06-24T05:34:45.567Z,29.36
2017-06-24T05:35:47.467Z,29.16
2017-06-24T05:36:49.296Z,29.12
2017-06-24T05:37:51.112Z,29.15
2017-06-24T05:38:52.978Z,29.24
2017-06-24T05:39:54.856Z,29.15
2017-06-24T05:40:56.749Z,29.06
2017-06-24T05:42:10.902Z,28.88
2017-06-24T05:43:12.791Z,28.80
2017-06-24T05:44:14.667Z,28.74
2017-06-24T05:45:16.539Z,28.68
2017-06-24T05:46:18.348Z,28.54
2017-06-24T05:47:20.181Z,28.33
2017-06-24T05:48:22.040Z,28.21
2017-06-24T05:49:23.889Z,28.12
2017-06-24T05:50:25.722Z,27.96
2017-06-24T05:51:39.886Z,27.99
2017-06-24T05:52:41.758Z,27.84
2017-06-24T05:53:43.649Z,27.84
2017-06-24T05:54:45.523Z,27.67
2017-06-24T05:55:47.354Z,27.51
2017-06-24T05:56:49.186Z,27.13
2017-06-24T05:57:51.079Z,26.77
2017-06-24T05:58:52.949Z,26.58
2017-06-24T05:59:54.825Z,26.57
2017-06-24T06:01:08.986Z,26.51
2017-06-24T06:02:10.858Z,26.23
2017-06-24T06:03:12.729Z,25.98
2017-06-24T06:04:14.598Z,25.90
2017-06-24T06:05:16.410Z,25.65
2017-06-24T06:06:18.241Z,25.69
2017-06-24T06:07:20.117Z,25.60
2017-06-24T06:08:22.014Z,25.54
2017-06-24T06:09:23.905Z,25.47
2017-06-24T06:10:38.044Z,25.40
2017-06-24T06:11:39.919Z,25.35
2017-06-24T06:12:41.809Z,25.36
2017-06-24T06:13:43.679Z,25.21
2017-06-24T06:14:45.522Z,25.06
2017-06-24T06:15:47.319Z,25.08
2017-06-24T06:16:49.189Z,24.95
2017-06-24T06:17:51.054Z,24.93
2017-06-24T06:18:52.925Z,24.91
2017-06-24T06:20:07.066Z,24.85
2017-06-24T06:21:08.936Z,24.84
2017-06-24T06:22:10.805Z,24.93
2017-06-24T06:23:12.682Z,25.05
2017-06-24T06:24:14.511Z,25.08
2017-06-24T06:25:16.340Z,25.03
2017-06-24T06:26:18.213Z,25.00
2017-06-24T06:27:20.085Z,24.96
2017-06-24T06:28:21.984Z,24.93
2017-06-24T06:29:36.120Z,25.03
2017-06-24T06:30:37.995Z,24.96
2017-06-24T06:31:39.888Z,24.77
2017-06-24T06:32:41.776Z,24.61
2017-06-24T06:33:43.606Z,24.52
2017-06-24T06:34:45.416Z,24.46
2017-06-24T06:35:47.295Z,24.34
2017-06-24T06:36:49.186Z,24.39
2017-06-24T06:37:51.057Z,24.39
2017-06-24T06:39:05.196Z,24.24
2017-06-24T06:40:07.074Z,24.21
2017-06-24T06:41:09.376Z,24.42
2017-06-24T06:42:11.260Z,24.45
2017-06-24T06:43:13.201Z,24.49
2017-06-24T06:44:15.040Z,24.69
2017-06-24T06:45:16.942Z,24.76
2017-06-24T06:46:18.826Z,24.69
2017-06-24T06:47:20.702Z,24.58
2017-06-24T06:48:34.849Z,24.58
2017-06-24T06:49:36.716Z,24.46
2017-06-24T06:50:38.592Z,24.43
2017-06-24T06:51:40.485Z,24.34
2017-06-24T06:52:42.313Z,24.22
2017-06-24T06:53:44.138Z,24.13
2017-06-24T06:54:46.009Z,24.16
2017-06-24T06:55:47.885Z,24.30
2017-06-24T06:56:49.777Z,24.53
2017-06-24T06:58:03.917Z,24.50
2017-06-24T06:59:05.789Z,24.45
2017-06-24T07:00:07.686Z,24.47
2017-06-24T07:01:09.577Z,24.55
2017-06-24T07:02:11.407Z,24.58
2017-06-24T07:03:13.233Z,24.80
2017-06-24T07:04:15.106Z,24.91
2017-06-24T07:05:16.992Z,25.06
2017-06-24T07:06:18.898Z,25.17
2017-06-24T07:07:33.085Z,25.40
2017-06-24T07:08:34.977Z,25.54
2017-06-24T07:09:36.874Z,25.52
2017-06-24T07:10:38.767Z,25.47
2017-06-24T07:11:40.574Z,25.57
2017-06-24T07:12:42.384Z,25.57
2017-06-24T07:13:44.253Z,25.65
2017-06-24T07:14:46.124Z,25.64
2017-06-24T07:15:47.999Z,25.65
2017-06-24T07:17:02.160Z,25.61
2017-06-24T07:18:04.047Z,25.65
2017-06-24T07:19:05.922Z,25.72
2017-06-24T07:20:07.790Z,25.73
2017-06-24T07:21:09.598Z,25.64
2017-06-24T07:22:11.407Z,25.73
2017-06-24T07:23:13.306Z,25.75
2017-06-24T07:24:15.204Z,25.73
2017-06-24T07:25:17.085Z,25.83
2017-06-24T07:26:31.229Z,25.85
2017-06-24T07:27:33.226Z,25.80
2017-06-24T07:28:35.144Z,25.88
2017-06-24T07:29:37.035Z,25.95
2017-06-24T07:30:38.863Z,26.06
2017-06-24T07:31:40.686Z,25.95
2017-06-24T07:32:42.563Z,25.83
2017-06-24T07:33:44.455Z,25.67
2017-06-24T07:34:46.346Z,25.64
2017-06-24T07:36:00.492Z,25.67
2017-06-24T07:37:02.363Z,25.72
2017-06-24T07:38:04.248Z,25.73
2017-06-24T07:39:06.118Z,25.77
2017-06-24T07:40:07.929Z,25.90
2017-06-24T07:41:09.755Z,25.80
2017-06-24T07:42:11.652Z,25.75
2017-06-24T07:43:13.543Z,25.85
2017-06-24T07:44:15.434Z,26.01
2017-06-24T07:45:29.582Z,26.25
2017-06-24T07:46:31.474Z,26.28
2017-06-24T07:47:33.338Z,26.37
2017-06-24T07:48:35.211Z,26.30
2017-06-24T07:49:37.040Z,26.21
2017-06-24T07:50:38.853Z,26.01
2017-06-24T07:51:40.746Z,25.85
2017-06-24T07:52:42.639Z,25.67
2017-06-24T07:53:44.514Z,25.62
2017-06-24T07:54:58.680Z,25.54
2017-06-24T07:56:00.575Z,25.45
2017-06-24T07:57:02.470Z,25.32
2017-06-24T07:58:04.353Z,25.18
2017-06-24T07:59:06.208Z,25.08
2017-06-24T08:00:08.040Z,25.05
2017-06-24T08:01:09.945Z,24.96
2017-06-24T08:02:11.832Z,25.03
2017-06-24T08:03:13.792Z,25.05
2017-06-24T08:04:28.197Z,25.10
2017-06-24T08:05:30.115Z,25.15
2017-06-24T08:06:32.031Z,25.06
2017-06-24T08:07:34.009Z,25.24
2017-06-24T08:08:35.879Z,25.51
2017-06-24T08:09:37.719Z,25.65
2017-06-24T08:10:39.624Z,25.67
2017-06-24T08:11:41.627Z,25.76
2017-06-24T08:12:43.585Z,25.91
2017-06-24T08:13:57.848Z,26.10
2017-06-24T08:14:59.735Z,26.28
2017-06-24T08:16:01.608Z,26.51
2017-06-24T08:17:03.484Z,26.54
2017-06-24T08:18:05.740Z,26.63
2017-06-24T08:19:07.525Z,26.69
2017-06-24T08:20:09.424Z,26.76
2017-06-24T08:21:11.310Z,26.60
2017-06-24T08:22:13.180Z,26.62
2017-06-24T08:23:27.341Z,26.50
2017-06-24T08:24:29.289Z,26.58
2017-06-24T08:25:31.181Z,26.58
2017-06-24T08:26:33.078Z,26.45
2017-06-24T08:27:34.904Z,26.55
2017-06-24T08:28:36.736Z,26.66
2017-06-24T08:29:38.610Z,26.84
2017-06-24T08:30:40.515Z,27.04
2017-06-24T08:31:42.408Z,27.09
2017-06-24T08:32:56.581Z,27.02
2017-06-24T08:33:58.477Z,26.95
2017-06-24T08:35:00.387Z,27.07
2017-06-24T08:36:02.274Z,27.02
2017-06-24T08:37:04.090Z,27.07
2017-06-24T08:38:05.929Z,27.19
2017-06-24T08:39:07.822Z,27.17
2017-06-24T08:40:09.718Z,27.28
2017-06-24T08:41:11.618Z,27.28
2017-06-24T08:42:25.786Z,27.39
2017-06-24T08:43:28.114Z,27.41
2017-06-24T08:44:30.093Z,27.24
2017-06-24T08:45:31.972Z,27.37
2017-06-24T08:46:33.805Z,27.34
2017-06-24T08:47:35.634Z,27.29
2017-06-24T08:48:37.534Z,27.17
2017-06-24T08:49:39.423Z,27.02
2017-06-24T08:50:41.312Z,26.92
2017-06-24T08:51:55.582Z,26.91
2017-06-24T08:52:57.553Z,27.17
2017-06-24T08:53:59.446Z,27.34
2017-06-24T08:55:01.338Z,27.18
2017-06-24T08:56:03.165Z,27.18
2017-06-24T08:57:04.979Z,27.10
2017-06-24T08:58:06.907Z,27.10
2017-06-24T08:59:08.790Z,27.19
2017-06-24T09:00:10.682Z,27.37
2017-06-24T09:01:24.904Z,27.41
2017-06-24T09:02:26.837Z,27.21
2017-06-24T09:03:28.711Z,26.88
2017-06-24T09:04:30.601Z,26.50
2017-06-24T09:05:32.535Z,26.21
2017-06-24T09:06:34.356Z,25.98
2017-06-24T09:07:36.227Z,25.90
2017-06-24T09:08:38.205Z,25.77
2017-06-24T09:09:40.095Z,25.75
2017-06-24T09:10:54.259Z,25.72
2017-06-24T09:11:56.156Z,25.75
2017-06-24T09:12:58.050Z,25.83
2017-06-24T09:13:59.910Z,25.90
2017-06-24T09:15:01.716Z,25.82
2017-06-24T09:16:03.529Z,25.69
2017-06-24T09:17:05.402Z,25.65
2017-06-24T09:18:07.288Z,25.64
2017-06-24T09:19:09.176Z,25.85
2017-06-24T09:20:23.371Z,26.05
2017-06-24T09:21:25.381Z,26.29
2017-06-24T09:22:27.285Z,26.39
2017-06-24T09:23:29.245Z,26.55
2017-06-24T09:24:31.059Z,26.58
2017-06-24T09:25:32.889Z,26.50
2017-06-24T09:26:34.762Z,26.47
2017-06-24T09:27:36.648Z,26.30
2017-06-24T09:28:38.546Z,26.30
2017-06-24T09:29:52.785Z,26.50
2017-06-24T09:30:54.733Z,26.75
2017-06-24T09:31:56.673Z,26.87
2017-06-24T09:32:58.659Z,27.06
2017-06-24T09:34:00.489Z,27.06
2017-06-24T09:35:02.326Z,27.18
2017-06-24T09:36:04.241Z,27.17
2017-06-24T09:37:06.101Z,27.32
2017-06-24T09:38:08.000Z,27.49
2017-06-24T09:39:22.145Z,27.60
2017-06-24T09:40:24.015Z,27.85
2017-06-24T09:41:25.909Z,27.79
2017-06-24T09:42:27.770Z,27.70
2017-06-24T09:43:29.584Z,27.43
2017-06-24T09:44:31.395Z,27.13
2017-06-24T09:45:33.301Z,26.87
2017-06-24T09:46:35.169Z,26.91
2017-06-24T09:47:37.054Z,27.00
2017-06-24T09:48:51.218Z,26.85
2017-06-24T09:49:53.105Z,26.84
2017-06-24T09:50:55.174Z,26.77
2017-06-24T09:51:57.028Z,26.70
2017-06-24T09:52:58.839Z,26.76
2017-06-24T09:54:00.643Z,26.73
2017-06-24T09:55:02.522Z,26.50
2017-06-24T09:56:04.361Z,26.44
2017-06-24T09:57:06.254Z,26.43
2017-06-24T09:58:20.464Z,26.23
2017-06-24T09:59:22.354Z,25.97
2017-06-24T10:00:24.246Z,25.87
2017-06-24T10:01:26.133Z,25.77
2017-06-24T10:02:27.974Z,25.72
2017-06-24T10:03:29.960Z,25.52
2017-06-24T10:04:31.850Z,25.67
2017-06-24T10:05:33.801Z,25.76
2017-06-24T10:06:35.688Z,25.79
2017-06-24T10:07:49.835Z,25.97
2017-06-24T10:08:51.725Z,26.23
2017-06-24T10:09:53.614Z,26.40
2017-06-24T10:10:55.502Z,26.62
2017-06-24T10:11:57.335Z,26.72
2017-06-24T10:12:59.148Z,26.92
2017-06-24T10:14:01.012Z,26.92
2017-06-24T10:15:02.878Z,26.82
2017-06-24T10:16:04.755Z,26.63
2017-06-24T10:17:18.913Z,26.39
2017-06-24T10:18:20.778Z,26.39
2017-06-24T10:19:22.651Z,26.37
2017-06-24T10:20:24.551Z,26.58
2017-06-24T10:21:26.396Z,26.58
2017-06-24T10:22:28.492Z,26.75
2017-06-24T10:23:30.377Z,26.80
2017-06-24T10:24:32.364Z,26.85
2017-06-24T10:25:34.255Z,26.87
2017-06-24T10:26:48.421Z,26.89
2017-06-24T10:27:50.382Z,26.99
2017-06-24T10:28:52.243Z,27.17
2017-06-24T10:29:54.117Z,27.19
2017-06-24T10:30:55.947Z,27.27
2017-06-24T10:31:57.775Z,27.07
2017-06-24T10:32:59.667Z,27.10
2017-06-24T10:34:01.535Z,27.00
2017-06-24T10:35:03.449Z,26.95
2017-06-24T10:36:17.610Z,26.80
2017-06-24T10:37:19.474Z,26.76
2017-06-24T10:38:21.361Z,26.88
2017-06-24T10:39:23.233Z,26.85
2017-06-24T10:40:25.060Z,26.97
2017-06-24T10:41:26.871Z,27.13
2017-06-24T10:42:28.759Z,27.19
2017-06-24T10:43:30.651Z,27.32
2017-06-24T10:44:32.519Z,27.27
2017-06-24T10:45:46.675Z,27.29
2017-06-24T10:46:48.564Z,27.34
2017-06-24T10:47:50.523Z,27.44
2017-06-24T10:48:52.479Z,27.49
2017-06-24T10:49:54.287Z,27.41
2017-06-24T10:50:56.111Z,27.40
2017-06-24T10:51:58.001Z,27.41
2017-06-24T10:52:59.920Z,27.50
2017-06-24T10:54:01.848Z,27.59
2017-06-24T10:55:16.111Z,27.72
2017-06-24T10:56:17.974Z,27.79
2017-06-24T10:57:19.866Z,28.00
2017-06-24T10:58:21.756Z,28.07
2017-06-24T10:59:23.645Z,28.11
2017-06-24T11:00:25.542Z,28.15
2017-06-24T11:01:27.492Z,28.24
2017-06-24T11:02:29.411Z,28.36
2017-06-24T11:03:31.285Z,28.31
2017-06-24T11:04:45.436Z,28.44
2017-06-24T11:05:47.327Z,28.44
2017-06-24T11:06:49.211Z,28.43
2017-06-24T11:07:51.085Z,28.31
2017-06-24T11:08:52.916Z,28.00
2017-06-24T11:09:54.747Z,27.96
2017-06-24T11:10:56.636Z,28.03
2017-06-24T11:11:58.529Z,28.07
2017-06-24T11:13:00.423Z,28.24
2017-06-24T11:14:14.583Z,28.36
2017-06-24T11:15:16.487Z,28.27
2017-06-24T11:16:18.340Z,28.31
2017-06-24T11:17:20.231Z,28.33
2017-06-24T11:18:22.044Z,28.33
2017-06-24T11:19:23.873Z,28.29
2017-06-24T11:20:25.765Z,28.00
2017-06-24T11:21:27.660Z,27.92
2017-06-24T11:22:29.552Z,27.77
2017-06-24T11:23:43.730Z,27.69
2017-06-24T11:24:45.589Z,27.67
2017-06-24T11:25:47.459Z,27.65
2017-06-24T11:26:49.341Z,27.66
2017-06-24T11:27:51.155Z,27.69
2017-06-24T11:28:52.962Z,27.75
2017-06-24T11:29:54.854Z,27.69
2017-06-24T11:30:56.740Z,27.59
2017-06-24T11:31:58.616Z,27.54
2017-06-24T11:33:12.780Z,27.39
2017-06-24T11:34:14.672Z,27.36
2017-06-24T11:35:16.559Z,27.37
2017-06-24T11:36:18.431Z,27.32
2017-06-24T11:37:20.264Z,27.17
2017-06-24T11:38:22.090Z,27.10
2017-06-24T11:39:23.964Z,27.04
2017-06-24T11:40:25.853Z,27.03
2017-06-24T11:41:27.751Z,27.00
2017-06-24T11:42:41.903Z,27.04
2017-06-24T11:43:43.780Z,27.09
2017-06-24T11:44:45.645Z,27.18
2017-06-24T11:45:47.520Z,27.24
2017-06-24T11:46:49.343Z,27.24
2017-06-24T11:47:51.157Z,27.34
2017-06-24T11:48:53.049Z,27.28
2017-06-24T11:49:54.941Z,27.40
2017-06-24T11:50:56.831Z,27.36
2017-06-24T11:52:10.994Z,27.57
2017-06-24T11:53:12.865Z,27.70
2017-06-24T11:54:14.756Z,27.74
2017-06-24T11:55:16.659Z,27.85
2017-06-24T11:56:18.470Z,27.87
2017-06-24T11:57:20.293Z,27.72
2017-06-24T11:58:22.159Z,27.40
2017-06-24T11:59:24.028Z,27.32
2017-06-24T12:00:25.920Z,27.37
2017-06-24T12:01:40.064Z,27.51
2017-06-24T12:02:41.958Z,27.60
2017-06-24T12:03:43.842Z,27.63
2017-06-24T12:04:45.712Z,27.60
2017-06-24T12:05:47.542Z,27.62
2017-06-24T12:06:49.349Z,27.77
2017-06-24T12:07:51.180Z,27.97
2017-06-24T12:08:52.989Z,28.17
2017-06-24T12:09:54.827Z,28.21
2017-06-24T12:11:08.991Z,28.31
2017-06-24T12:12:10.881Z,28.61
2017-06-24T12:13:12.759Z,28.55
2017-06-24T12:14:14.644Z,28.56
2017-06-24T12:15:16.447Z,28.58
2017-06-24T12:16:18.264Z,28.62
2017-06-24T12:17:20.157Z,28.68
2017-06-24T12:18:22.041Z,28.59
2017-06-24T12:19:23.918Z,28.64
2017-06-24T12:20:38.083Z,28.71
2017-06-24T12:21:39.968Z,28.78
2017-06-24T12:22:41.838Z,28.67
2017-06-24T12:23:43.702Z,28.51
2017-06-24T12:24:45.513Z,28.52
2017-06-24T12:25:47.345Z,28.41
2017-06-24T12:26:49.239Z,28.41
2017-06-24T12:27:51.103Z,28.37
2017-06-24T12:28:52.976Z,28.55
2017-06-24T12:30:07.138Z,28.46
2017-06-24T12:31:09.008Z,28.61
2017-06-24T12:32:10.902Z,28.67
2017-06-24T12:33:12.790Z,28.76
2017-06-24T12:34:14.596Z,28.85
2017-06-24T12:35:16.412Z,29.02
2017-06-24T12:36:18.302Z,29.00
2017-06-24T12:37:20.175Z,28.96
2017-06-24T12:38:22.036Z,28.77
2017-06-24T12:39:36.184Z,28.78
2017-06-24T12:40:38.056Z,28.71
2017-06-24T12:41:39.945Z,28.68
2017-06-24T12:42:41.807Z,28.76
2017-06-24T12:43:43.633Z,28.77
2017-06-24T12:44:45.461Z,28.73
2017-06-24T12:45:47.353Z,28.90
2017-06-24T12:46:49.244Z,28.96
2017-06-24T12:47:51.114Z,28.96
2017-06-24T12:49:05.306Z,28.89
2017-06-24T12:50:07.177Z,28.89
2017-06-24T12:51:09.073Z,28.93
2017-06-24T12:52:10.958Z,28.98
2017-06-24T12:53:12.770Z,29.15
2017-06-24T12:54:14.601Z,29.33
2017-06-24T12:55:16.475Z,29.42
2017-06-24T12:56:18.341Z,29.43
2017-06-24T12:57:20.215Z,29.45
2017-06-24T12:58:34.359Z,29.19
2017-06-24T12:59:36.244Z,29.11
2017-06-24T13:00:38.113Z,29.21
2017-06-24T13:01:40.006Z,29.18
2017-06-24T13:02:41.821Z,29.23
2017-06-24T13:03:43.651Z,29.26
2017-06-24T13:04:45.528Z,29.30
2017-06-24T13:05:47.379Z,29.45
2017-06-24T13:06:49.212Z,29.58
2017-06-24T13:08:03.416Z,29.61
2017-06-24T13:09:05.301Z,29.73
2017-06-24T13:10:07.172Z,29.74
2017-06-24T13:11:09.062Z,29.78
2017-06-24T13:12:10.872Z,29.94
2017-06-24T13:13:12.685Z,29.83
2017-06-24T13:14:14.559Z,29.61
2017-06-24T13:15:16.430Z,29.57
2017-06-24T13:16:18.324Z,29.71
2017-06-24T13:17:32.495Z,29.95
2017-06-24T13:18:34.391Z,30.15
2017-06-24T13:19:36.258Z,30.31
2017-06-24T13:20:38.149Z,30.45
2017-06-24T13:21:39.961Z,30.65
2017-06-24T13:22:41.803Z,30.62
2017-06-24T13:23:43.660Z,30.57
2017-06-24T13:24:45.531Z,30.54
2017-06-24T13:25:47.424Z,30.45
2017-06-24T13:27:01.573Z,30.43
2017-06-24T13:28:03.444Z,30.34
2017-06-24T13:29:05.317Z,30.32
2017-06-24T13:30:07.208Z,30.39
2017-06-24T13:31:09.023Z,30.29
2017-06-24T13:32:10.855Z,30.16
2017-06-24T13:33:12.751Z,30.11
2017-06-24T13:34:14.639Z,30.10